createdAt,value
2023-03-05T00:02:17.771Z,100320.84
2023-03-05T00:04:45.092Z,100313.00
2023-03-05T00:07:12.633Z,100310.13
2023-03-05T00:09:40.362Z,100311.06
2023-03-05T00:12:08.732Z,100313.41
2023-03-05T00:14:36.138Z,100301.44
2023-03-05T00:17:03.550Z,100309.00
2023-03-05T00:19:31.053Z,100306.53
2023-03-05T00:21:58.500Z,100303.91
2023-03-05T00:24:25.876Z,100298.69
2023-03-05T00:26:53.524Z,100300.34
2023-03-05T00:29:22.168Z,100290.47
2023-03-05T00:31:49.686Z,100288.41
2023-03-05T00:34:19.136Z,100293.78
2023-03-05T00:36:49.354Z,100289.53
2023-03-05T00:39:18.402Z,100295.00
2023-03-05T00:41:45.564Z,100301.22
2023-03-05T00:44:13.137Z,100302.03
2023-03-05T00:46:40.804Z,100301.22
2023-03-05T00:49:08.399Z,100287.47
2023-03-05T00:51:35.729Z,100289.38
2023-03-05T00:54:04.033Z,100291.06
2023-03-05T00:56:31.513Z,100288.84
2023-03-05T00:58:58.931Z,100302.72
2023-03-05T01:01:26.881Z,100300.66
2023-03-05T01:03:56.708Z,100293.53
2023-03-05T01:06:24.410Z,100289.78
2023-03-05T01:08:51.871Z,100292.41
2023-03-05T01:11:19.341Z,100294.19
2023-03-05T01:13:46.651Z,100303.38
2023-03-05T01:16:14.113Z,100291.59
2023-03-05T01:18:41.798Z,100299.00
2023-03-05T01:21:09.352Z,100297.63
2023-03-05T01:23:37.726Z,100302.16
2023-03-05T01:26:05.427Z,100303.38
2023-03-05T01:28:33.476Z,100304.91
2023-03-05T01:31:00.818Z,100299.53
2023-03-05T01:33:28.232Z,100308.59
2023-03-05T01:35:55.629Z,100312.56
2023-03-05T01:38:22.989Z,100305.13
2023-03-05T01:40:50.500Z,100305.81
2023-03-05T01:43:29.734Z,100311.03
2023-03-05T01:46:30.104Z,100309.09
2023-03-05T01:49:06.687Z,100307.31
2023-03-05T01:51:39.968Z,100315.53
2023-03-05T01:54:09.270Z,100321.03
2023-03-05T01:56:38.656Z,100304.16
2023-03-05T01:59:06.480Z,100306.06
2023-03-05T02:01:41.401Z,100293.72
2023-03-05T02:04:11.820Z,100300.00
2023-03-05T02:06:41.988Z,100280.25
2023-03-05T02:09:10.050Z,100299.47
2023-03-05T02:11:37.694Z,100297.00
2023-03-05T02:14:06.306Z,100280.78
2023-03-05T02:16:37.229Z,100285.72
2023-03-05T02:19:09.081Z,100286.53
2023-03-05T02:21:45.770Z,100272.88
2023-03-05T02:24:14.884Z,100270.13
2023-03-05T02:26:45.069Z,100282.38
2023-03-05T02:29:17.689Z,100263.28
2023-03-05T02:31:45.147Z,100274.13
2023-03-05T02:34:13.431Z,100264.50
2023-03-05T02:36:41.027Z,100260.69
2023-03-05T02:39:09.927Z,100259.44
2023-03-05T02:41:37.980Z,100250.50
2023-03-05T02:44:05.726Z,100246.69
2023-03-05T02:46:33.048Z,100221.16
2023-03-05T02:49:00.581Z,100242.28
2023-03-05T02:51:28.300Z,100244.50
2023-03-05T02:53:56.154Z,100251.97
2023-03-05T02:56:27.138Z,100252.22
2023-03-05T02:58:54.594Z,100261.06
2023-03-05T03:01:22.716Z,100258.84
2023-03-05T03:03:50.107Z,100262.81
2023-03-05T03:06:17.416Z,100254.84
2023-03-05T03:08:44.679Z,100259.09
2023-03-05T03:11:13.571Z,100250.88
2023-03-05T03:13:41.767Z,100247.28
2023-03-05T03:16:15.291Z,100240.72
2023-03-05T03:18:42.977Z,100243.34
2023-03-05T03:21:18.003Z,100251.16
2023-03-05T03:23:45.497Z,100255.81
2023-03-05T03:26:12.874Z,100253.22
2023-03-05T03:28:40.605Z,100247.41
2023-03-05T03:31:08.553Z,100257.44
2023-03-05T03:33:36.065Z,100254.78
2023-03-05T03:36:05.781Z,100254.88
2023-03-05T03:38:33.166Z,100249.34
2023-03-05T03:41:00.564Z,100242.28
2023-03-05T03:43:27.989Z,100249.84
2023-03-05T03:45:55.399Z,100247.50
2023-03-05T03:48:22.744Z,100245.56
2023-03-05T03:50:50.059Z,100245.97
2023-03-05T03:53:17.823Z,100257.78
2023-03-05T03:55:47.901Z,100240.72
2023-03-05T03:58:15.454Z,100247.31
2023-03-05T04:00:42.945Z,100250.59
2023-03-05T04:03:10.510Z,100247.56
2023-03-05T04:05:37.867Z,100253.31
2023-03-05T04:08:06.096Z,100251.13
2023-03-05T04:10:33.470Z,100254.56
2023-03-05T04:13:00.832Z,100258.16
2023-03-05T04:15:28.996Z,100247.56
2023-03-05T04:17:56.314Z,100251.75
2023-03-05T04:20:23.670Z,100246.06
2023-03-05T04:22:51.388Z,100246.72
2023-03-05T04:25:18.807Z,100246.16
2023-03-05T04:27:48.514Z,100249.28
2023-03-05T04:30:16.130Z,100265.63
2023-03-05T04:32:43.582Z,100253.09
2023-03-05T04:35:11.590Z,100258.56
2023-03-05T04:37:39.024Z,100254.16
2023-03-05T04:40:07.206Z,100251.94
2023-03-05T04:42:34.544Z,100260.28
2023-03-05T04:45:01.908Z,100264.91
2023-03-05T04:47:30.923Z,100254.97
2023-03-05T04:49:58.289Z,100256.78
2023-03-05T04:52:25.652Z,100260.44
2023-03-05T04:54:54.639Z,100262.91
2023-03-05T04:57:23.210Z,100270.81
2023-03-05T04:59:51.303Z,100258.63
2023-03-05T05:02:18.762Z,100243.16
2023-03-05T05:04:46.188Z,100263.34
2023-03-05T05:07:13.499Z,100272.53
2023-03-05T05:09:41.795Z,100270.13
2023-03-05T05:12:10.743Z,100269.31
2023-03-05T05:14:38.123Z,100259.06
2023-03-05T05:17:05.663Z,100266.13
2023-03-05T05:19:34.116Z,100272.31
2023-03-05T05:22:02.465Z,100265.38
2023-03-05T05:24:29.781Z,100261.75
2023-03-05T05:26:57.385Z,100264.78
2023-03-05T05:29:24.796Z,100260.88
2023-03-05T05:31:53.508Z,100254.00
2023-03-05T05:34:21.009Z,100259.28
2023-03-05T05:36:48.389Z,100262.91
2023-03-05T05:39:15.708Z,100256.75
2023-03-05T05:41:43.018Z,100251.19
2023-03-05T05:44:10.355Z,100249.13
2023-03-05T05:46:37.769Z,100250.28
2023-03-05T05:49:05.211Z,100248.00
2023-03-05T05:51:33.482Z,100243.41
2023-03-05T05:54:00.934Z,100249.50
2023-03-05T05:56:28.351Z,100245.25
2023-03-05T05:58:55.959Z,100239.84
2023-03-05T06:01:26.771Z,100241.50
2023-03-05T06:03:54.368Z,100227.41
2023-03-05T06:06:24.327Z,100231.00
2023-03-05T06:08:52.751Z,100244.16
2023-03-05T06:11:20.922Z,100238.94
2023-03-05T06:13:49.832Z,100239.97
2023-03-05T06:16:20.606Z,100235.03
2023-03-05T06:18:48.174Z,100211.78
2023-03-05T06:21:18.536Z,100229.47
2023-03-05T06:23:46.770Z,100229.47
2023-03-05T06:26:16.458Z,100235.22
2023-03-05T06:28:43.966Z,100233.75
2023-03-05T06:31:17.479Z,100237.38
2023-03-05T06:33:45.679Z,100240.00
2023-03-05T06:36:16.440Z,100239.00
2023-03-05T06:38:43.994Z,100231.81
2023-03-05T06:41:16.493Z,100242.63
2023-03-05T06:43:46.845Z,100246.22
2023-03-05T06:46:18.101Z,100231.66
2023-03-05T06:48:46.369Z,100249.69
2023-03-05T06:51:25.857Z,100230.50
2023-03-05T06:53:54.575Z,100245.91
2023-03-05T06:56:22.969Z,100246.22
2023-03-05T06:58:52.309Z,100237.53
2023-03-05T07:01:21.316Z,100234.91
2023-03-05T07:03:53.290Z,100252.81
2023-03-05T07:06:21.944Z,100246.56
2023-03-05T07:08:49.665Z,100237.22
2023-03-05T07:11:20.358Z,100237.06
2023-03-05T07:13:48.675Z,100239.31
2023-03-05T07:16:17.627Z,100249.16
2023-03-05T07:18:46.025Z,100233.09
2023-03-05T07:21:20.051Z,100234.44
2023-03-05T07:23:47.899Z,100231.81
2023-03-05T07:26:15.665Z,100221.31
2023-03-05T07:28:43.603Z,100231.44
2023-03-05T07:31:22.103Z,100233.09
2023-03-05T07:33:51.168Z,100243.28
2023-03-05T07:36:18.836Z,100237.69
2023-03-05T07:38:46.363Z,100246.53
2023-03-05T07:41:20.036Z,100245.53
2023-03-05T07:43:49.476Z,100238.66
2023-03-05T07:46:18.457Z,100246.22
2023-03-05T07:48:46.146Z,100242.78
2023-03-05T07:51:19.405Z,100234.06
2023-03-05T07:53:48.828Z,100219.09
2023-03-05T07:56:25.438Z,100249.09
2023-03-05T07:58:53.699Z,100231.81
2023-03-05T08:01:21.074Z,100220.16
2023-03-05T08:03:48.547Z,100226.72
2023-03-05T08:06:16.442Z,100234.41
2023-03-05T08:08:44.194Z,100238.69
2023-03-05T08:11:14.386Z,100257.88
2023-03-05T08:13:43.213Z,100246.94
2023-03-05T08:16:15.083Z,100243.19
2023-03-05T08:18:43.328Z,100250.66
2023-03-05T08:21:18.470Z,100254.72
2023-03-05T08:23:46.084Z,100258.53
2023-03-05T08:26:15.651Z,100266.94
2023-03-05T08:28:43.172Z,100274.47
2023-03-05T08:31:12.061Z,100272.38
2023-03-05T08:33:40.264Z,100265.47
2023-03-05T08:36:08.834Z,100270.88
2023-03-05T08:38:36.891Z,100272.38
2023-03-05T08:41:04.426Z,100276.78
2023-03-05T08:43:31.791Z,100280.75
2023-03-05T08:46:01.520Z,100268.72
2023-03-05T08:48:30.248Z,100270.34
2023-03-05T08:50:58.163Z,100268.81
2023-03-05T08:53:25.504Z,100275.16
2023-03-05T08:55:57.977Z,100281.66
2023-03-05T08:58:26.146Z,100265.38
2023-03-05T09:00:53.394Z,100256.47
2023-03-05T09:03:21.118Z,100261.19
2023-03-05T09:05:48.835Z,100270.28
2023-03-05T09:08:16.382Z,100264.91
2023-03-05T09:10:44.094Z,100259.31
2023-03-05T09:13:11.840Z,100265.44
2023-03-05T09:15:39.673Z,100267.09
2023-03-05T09:18:09.318Z,100266.59
2023-03-05T09:20:37.473Z,100268.94
2023-03-05T09:23:04.963Z,100253.56
2023-03-05T09:25:32.584Z,100253.53
2023-03-05T09:28:00.053Z,100251.47
2023-03-05T09:30:27.388Z,100252.50
2023-03-05T09:32:54.836Z,100247.25
2023-03-05T09:35:22.303Z,100245.81
2023-03-05T09:37:49.732Z,100258.78
2023-03-05T09:40:19.956Z,100247.38
2023-03-05T09:43:19.690Z,100246.34
2023-03-05T09:46:26.823Z,100255.25
2023-03-05T09:48:58.854Z,100238.50
2023-03-05T09:51:30.090Z,100244.69
2023-03-05T09:54:11.237Z,100250.31
2023-03-05T09:56:43.233Z,100242.50
2023-03-05T09:59:45.999Z,100241.06
2023-03-05T10:02:20.806Z,100242.28
2023-03-05T10:05:28.675Z,100246.19
2023-03-05T10:08:01.622Z,100236.91
2023-03-05T10:10:42.037Z,100236.47
2023-03-05T10:13:23.410Z,100247.72
2023-03-05T10:16:43.400Z,100261.59
2023-03-05T10:19:13.369Z,100257.06
2023-03-05T10:21:42.815Z,100253.34
2023-03-05T10:24:26.749Z,100252.19
2023-03-05T10:27:26.516Z,100251.72
2023-03-05T10:30:18.992Z,100253.63
2023-03-05T10:33:12.629Z,100256.03
2023-03-05T10:36:01.755Z,100250.53
2023-03-05T10:38:44.426Z,100255.09
2023-03-05T10:41:48.723Z,100266.59
2023-03-05T10:44:40.336Z,100249.94
2023-03-05T10:47:21.343Z,100249.72
2023-03-05T10:49:53.217Z,100252.50
2023-03-05T10:52:23.593Z,100258.41
2023-03-05T10:54:51.099Z,100257.56
2023-03-05T10:57:22.341Z,100253.31
2023-03-05T10:59:51.440Z,100266.91
2023-03-05T11:02:20.390Z,100261.78
2023-03-05T11:04:48.838Z,100279.78
2023-03-05T11:07:16.135Z,100275.69
2023-03-05T11:10:02.265Z,100269.78
2023-03-05T11:12:32.364Z,100274.59
2023-03-05T11:15:05.782Z,100266.97
2023-03-05T11:17:44.998Z,100270.44
2023-03-05T11:20:27.682Z,100280.97
2023-03-05T11:23:24.143Z,100283.94
2023-03-05T11:26:03.288Z,100282.81
2023-03-05T11:28:34.113Z,100286.72
2023-03-05T11:31:19.960Z,100283.16
2023-03-05T11:34:19.642Z,100306.19
2023-03-05T11:36:55.942Z,100291.75
2023-03-05T11:39:25.394Z,100296.84
2023-03-05T11:42:07.154Z,100308.34
2023-03-05T11:44:55.037Z,100307.66
2023-03-05T11:47:52.283Z,100307.31
2023-03-05T11:50:31.560Z,100312.22
2023-03-05T11:53:02.251Z,100316.84
2023-03-05T11:55:49.014Z,100313.25
2023-03-05T11:58:34.962Z,100317.34
2023-03-05T12:01:03.954Z,100319.78
2023-03-05T12:03:35.221Z,100314.41
2023-03-05T12:06:32.839Z,100321.94
2023-03-05T12:09:04.137Z,100324.25
2023-03-05T12:11:33.913Z,100318.84
2023-03-05T12:14:43.359Z,100326.22
2023-03-05T12:17:31.849Z,100327.38
2023-03-05T12:20:06.970Z,100327.38
2023-03-05T12:22:38.720Z,100328.84
2023-03-05T12:25:45.983Z,100342.63
2023-03-05T12:28:37.982Z,100340.00
2023-03-05T12:31:06.926Z,100340.34
2023-03-05T12:33:42.665Z,100328.03
2023-03-05T12:36:22.336Z,100335.75
2023-03-05T12:38:57.746Z,100334.75
2023-03-05T12:41:27.591Z,100338.72
2023-03-05T12:44:07.657Z,100334.25
2023-03-05T12:46:46.046Z,100337.72
2023-03-05T12:49:19.342Z,100340.34
2023-03-05T12:51:48.294Z,100344.31
2023-03-05T12:54:35.943Z,100345.28
2023-03-05T12:57:29.711Z,100340.34
2023-03-05T13:00:11.286Z,100348.06
2023-03-05T13:02:44.612Z,100341.00
2023-03-05T13:05:25.771Z,100345.91
2023-03-05T13:07:53.573Z,100344.63
2023-03-05T13:10:31.233Z,100346.25
2023-03-05T13:12:58.884Z,100335.56
2023-03-05T13:15:27.221Z,100342.31
2023-03-05T13:18:08.782Z,100341.47
2023-03-05T13:20:39.370Z,100343.63
2023-03-05T13:23:27.143Z,100344.31
2023-03-05T13:25:59.262Z,100345.94
2023-03-05T13:28:27.266Z,100344.78
2023-03-05T13:30:58.749Z,100363.66
2023-03-05T13:33:34.973Z,100354.16
2023-03-05T13:36:03.351Z,100361.41
2023-03-05T13:38:40.657Z,100360.72
2023-03-05T13:41:20.865Z,100358.78
2023-03-05T13:43:52.750Z,100362.53
2023-03-05T13:46:40.675Z,100355.97
2023-03-05T13:49:24.124Z,100373.22
2023-03-05T13:51:54.054Z,100369.13
2023-03-05T13:54:23.358Z,100388.97
2023-03-05T13:56:59.075Z,100376.19
2023-03-05T13:59:32.129Z,100375.19
2023-03-05T14:02:01.817Z,100382.75
2023-03-05T14:04:43.372Z,100376.84
2023-03-05T14:07:38.497Z,100388.31
2023-03-05T14:10:38.492Z,100389.31
2023-03-05T14:13:13.830Z,100384.72
2023-03-05T14:15:41.244Z,100390.28
2023-03-05T14:18:18.185Z,100389.97
2023-03-05T14:21:10.504Z,100392.78
2023-03-05T14:23:48.249Z,100399.16
2023-03-05T14:26:35.233Z,100389.97
2023-03-05T14:29:11.901Z,100395.22
2023-03-05T14:31:51.226Z,100393.06
2023-03-05T14:34:30.294Z,100400.78
2023-03-05T14:37:07.398Z,100407.50
2023-03-05T14:39:51.591Z,100413.41
2023-03-05T14:42:39.538Z,100405.03
2023-03-05T14:45:13.691Z,100411.91
2023-03-05T14:47:41.389Z,100419.94
2023-03-05T14:50:16.218Z,100412.22
2023-03-05T14:52:44.661Z,100423.69
2023-03-05T14:55:20.700Z,100422.03
2023-03-05T14:57:49.188Z,100432.84
2023-03-05T15:00:23.570Z,100431.19
2023-03-05T15:02:51.053Z,100425.94
2023-03-05T15:05:19.807Z,100428.91
2023-03-05T15:07:48.887Z,100431.84
2023-03-05T15:10:22.046Z,100432.50
2023-03-05T15:12:53.525Z,100439.25
2023-03-05T15:15:21.973Z,100442.03
2023-03-05T15:17:56.333Z,100447.91
2023-03-05T15:20:29.695Z,100453.97
2023-03-05T15:22:57.155Z,100446.63
2023-03-05T15:25:29.026Z,100459.06
2023-03-05T15:27:56.508Z,100464.00
2023-03-05T15:30:30.837Z,100466.47
2023-03-05T15:33:01.518Z,100468.25
2023-03-05T15:35:29.583Z,100479.75
2023-03-05T15:37:58.298Z,100468.25
2023-03-05T15:40:28.063Z,100474.81
2023-03-05T15:42:56.725Z,100474.16
2023-03-05T15:45:24.675Z,100489.25
2023-03-05T15:47:53.081Z,100490.56
2023-03-05T15:50:22.209Z,100481.56
2023-03-05T15:52:50.154Z,100500.44
2023-03-05T15:55:18.819Z,100503.72
2023-03-05T15:57:49.184Z,100510.59
2023-03-05T16:00:21.440Z,100498.78
2023-03-05T16:02:49.986Z,100502.38
2023-03-05T16:05:18.785Z,100515.31
2023-03-05T16:07:49.181Z,100505.63
2023-03-05T16:10:22.038Z,100514.53
2023-03-05T16:12:52.693Z,100509.88
2023-03-05T16:15:21.739Z,100510.88
2023-03-05T16:17:53.878Z,100507.59
2023-03-05T16:20:22.218Z,100520.72
2023-03-05T16:22:49.993Z,100516.13
2023-03-05T16:25:17.947Z,100524.97
2023-03-05T16:27:45.750Z,100524.91
2023-03-05T16:30:16.233Z,100524.09
2023-03-05T16:32:43.986Z,100529.97
2023-03-05T16:35:12.592Z,100528.13
2023-03-05T16:37:41.255Z,100538.31
2023-03-05T16:40:11.359Z,100540.47
2023-03-05T16:42:40.263Z,100538.84
2023-03-05T16:45:08.669Z,100540.28
2023-03-05T16:47:36.349Z,100544.75
2023-03-05T16:50:04.127Z,100542.94
2023-03-05T16:52:31.541Z,100539.34
2023-03-05T16:54:58.987Z,100543.25
2023-03-05T16:57:26.479Z,100545.19
2023-03-05T16:59:57.048Z,100548.91
2023-03-05T17:02:24.758Z,100544.81
2023-03-05T17:04:52.138Z,100546.69
2023-03-05T17:07:19.586Z,100552.19
2023-03-05T17:09:48.261Z,100547.38
2023-03-05T17:12:15.724Z,100553.41
2023-03-05T17:14:43.169Z,100552.03
2023-03-05T17:17:10.907Z,100557.91
2023-03-05T17:19:38.341Z,100562.06
2023-03-05T17:22:06.049Z,100574.94
2023-03-05T17:24:33.738Z,100575.88
2023-03-05T17:27:01.499Z,100568.66
2023-03-05T17:29:30.108Z,100569.19
2023-03-05T17:31:57.625Z,100573.09
2023-03-05T17:34:35.484Z,100574.19
2023-03-05T17:37:04.946Z,100572.13
2023-03-05T17:39:32.405Z,100574.22
2023-03-05T17:42:01.115Z,100590.31
2023-03-05T17:44:28.525Z,100591.88
2023-03-05T17:46:55.909Z,100589.47
2023-03-05T17:49:23.343Z,100584.81
2023-03-05T17:51:50.793Z,100585.34
2023-03-05T17:54:18.202Z,100599.66
2023-03-05T17:56:45.663Z,100591.19
2023-03-05T17:59:13.178Z,100587.84
2023-03-05T18:01:41.658Z,100584.06
2023-03-05T18:04:09.041Z,100590.84
2023-03-05T18:06:36.423Z,100590.09
2023-03-05T18:09:03.900Z,100589.63
2023-03-05T18:11:31.286Z,100587.97
2023-03-05T18:13:58.678Z,100592.78
2023-03-05T18:16:26.098Z,100587.47
2023-03-05T18:18:53.956Z,100595.47
2023-03-05T18:21:23.611Z,100592.59
2023-03-05T18:23:51.992Z,100602.63
2023-03-05T18:26:19.399Z,100600.84
2023-03-05T18:28:47.552Z,100600.28
2023-03-05T18:31:15.083Z,100604.00
2023-03-05T18:33:43.288Z,100603.19
2023-03-05T18:36:12.257Z,100598.22
2023-03-05T18:38:39.839Z,100598.50
2023-03-05T18:41:08.674Z,100605.66
2023-03-05T18:43:36.713Z,100604.72
2023-03-05T18:46:05.301Z,100596.56
2023-03-05T18:48:32.875Z,100603.72
2023-03-05T18:51:01.980Z,100595.13
2023-03-05T18:53:29.646Z,100603.09
2023-03-05T18:55:58.381Z,100607.78
2023-03-05T18:58:26.162Z,100604.50
2023-03-05T19:00:53.633Z,100603.72
2023-03-05T19:03:22.846Z,100608.09
2023-03-05T19:05:51.448Z,100601.34
2023-03-05T19:08:18.863Z,100602.56
2023-03-05T19:10:46.555Z,100598.44
2023-03-05T19:13:40.202Z,100606.97
2023-03-05T19:16:13.031Z,100615.25
2023-03-05T19:18:50.013Z,100610.56
2023-03-05T19:21:17.393Z,100616.91
2023-03-05T19:23:44.774Z,100602.84
2023-03-05T19:26:12.595Z,100588.84
2023-03-05T19:28:39.976Z,100601.25
2023-03-05T19:31:07.484Z,100600.03
2023-03-05T19:33:34.808Z,100606.34
2023-03-05T19:36:02.182Z,100607.41
2023-03-05T19:38:29.530Z,100606.72
2023-03-05T19:40:56.868Z,100605.47
2023-03-05T19:43:24.183Z,100610.53
2023-03-05T19:45:51.468Z,100608.88
2023-03-05T19:48:18.852Z,100607.13
2023-03-05T19:50:46.140Z,100602.97
2023-03-05T19:53:13.528Z,100599.22
2023-03-05T19:55:41.146Z,100600.31
2023-03-05T19:58:08.612Z,100598.38
2023-03-05T20:00:37.139Z,100592.56
2023-03-05T20:03:04.447Z,100601.41
2023-03-05T20:05:31.834Z,100602.47
2023-03-05T20:07:59.118Z,100596.94
2023-03-05T20:10:26.556Z,100595.66
2023-03-05T20:12:53.944Z,100601.81
2023-03-05T20:15:29.429Z,100593.69
2023-03-05T20:17:59.974Z,100594.50
2023-03-05T20:20:28.163Z,100590.25
2023-03-05T20:22:55.513Z,100593.25
2023-03-05T20:25:25.052Z,100594.81
2023-03-05T20:27:52.774Z,100581.41
2023-03-05T20:30:20.486Z,100588.84
2023-03-05T20:32:47.876Z,100577.31
2023-03-05T20:35:18.793Z,100566.50
2023-03-05T20:38:11.046Z,100573.44
2023-03-05T20:40:40.258Z,100579.22
2023-03-05T20:43:07.603Z,100582.59
2023-03-05T20:45:35.213Z,100589.13
2023-03-05T20:48:02.564Z,100576.19
2023-03-05T20:50:30.101Z,100575.00
2023-03-05T20:52:57.826Z,100574.59
2023-03-05T20:55:28.837Z,100580.25
2023-03-05T20:57:57.175Z,100586.06
2023-03-05T21:00:25.066Z,100581.38
2023-03-05T21:02:54.928Z,100594.06
2023-03-05T21:05:24.627Z,100588.88
2023-03-05T21:07:52.969Z,100585.31
2023-03-05T21:10:21.055Z,100591.22
2023-03-05T21:12:50.512Z,100589.59
2023-03-05T21:15:21.819Z,100591.94
2023-03-05T21:17:49.492Z,100594.53
2023-03-05T21:20:21.297Z,100595.22
2023-03-05T21:22:48.829Z,100594.81
2023-03-05T21:25:25.276Z,100593.59
2023-03-05T21:28:03.124Z,100591.09
2023-03-05T21:30:37.957Z,100591.38
2023-03-05T21:33:06.520Z,100591.50
2023-03-05T21:35:35.007Z,100598.94
2023-03-05T21:38:04.109Z,100589.47
2023-03-05T21:40:32.448Z,100593.69
2023-03-05T21:42:59.967Z,100588.06
2023-03-05T21:45:28.711Z,100593.28
2023-03-05T21:47:56.937Z,100599.06
2023-03-05T21:50:26.110Z,100603.03
2023-03-05T21:52:53.832Z,100603.44
2023-03-05T21:55:30.660Z,100593.28
2023-03-05T21:57:58.168Z,100603.13
2023-03-05T22:00:26.009Z,100609.72
2023-03-05T22:02:53.751Z,100606.72
2023-03-05T22:05:21.179Z,100602.03
2023-03-05T22:07:48.519Z,100601.38
2023-03-05T22:10:18.708Z,100597.38
2023-03-05T22:13:12.124Z,100600.41
2023-03-05T22:15:49.070Z,100602.59
2023-03-05T22:18:21.773Z,100601.78
2023-03-05T22:20:49.851Z,100604.22
2023-03-05T22:23:18.903Z,100598.16
2023-03-05T22:25:46.347Z,100591.31
2023-03-05T22:28:13.939Z,100588.94
2023-03-05T22:30:44.917Z,100583.94
2023-03-05T22:33:13.288Z,100580.75
2023-03-05T22:35:41.748Z,100573.94
2023-03-05T22:38:09.493Z,100572.88
2023-03-05T22:40:40.550Z,100576.03
2023-03-05T22:43:07.960Z,100574.72
2023-03-05T22:45:35.326Z,100573.16
2023-03-05T22:48:02.808Z,100577.25
2023-03-05T22:50:30.240Z,100577.50
2023-03-05T22:52:57.606Z,100573.81
2023-03-05T22:55:24.945Z,100573.63
2023-03-05T22:57:52.287Z,100568.41
2023-03-05T23:00:23.858Z,100556.41
2023-03-05T23:02:51.873Z,100552.19
2023-03-05T23:05:19.665Z,100550.19
2023-03-05T23:07:47.234Z,100553.56
2023-03-05T23:10:21.225Z,100556.09
2023-03-05T23:12:51.120Z,100546.72
2023-03-05T23:15:23.180Z,100541.41
2023-03-05T23:17:50.989Z,100539.88
2023-03-05T23:20:21.266Z,100549.81
2023-03-05T23:22:49.876Z,100545.53
2023-03-05T23:25:17.330Z,100541.22
2023-03-05T23:27:44.704Z,100533.53
2023-03-05T23:30:19.957Z,100533.53
2023-03-05T23:33:02.942Z,100527.25
2023-03-05T23:35:38.976Z,100519.63
2023-03-05T23:38:13.670Z,100523.94
2023-03-05T23:40:46.869Z,100524.53
2023-03-05T23:43:15.535Z,100525.41
2023-03-05T23:45:44.473Z,100526.44
2023-03-05T23:48:12.124Z,100532.47
2023-03-05T23:50:42.300Z,100527.09
2023-03-05T23:53:12.079Z,100524.88
2023-03-05T23:55:44.368Z,100523.34
2023-03-05T23:58:12.134Z,100524.06
